Comox Airport
CYQQ : now visible

Airfield :











YOU CAN JOIN US ON...

 
LOGIN :

Register | Disclaimer

   EN    FR    IT 

 









Legend :    VFR   Marginal VFR   IFR   Intensive IFR   Very Intensive IFR
Visi :
Ceiling :
>= 8 km
>= 3000ft
5 to 8 km
1000 to 3000 ft
1500m to 5 km
500 to 1000 ft
800 to 1500m
200 to 500 ft
< 800m
< 200 ft
Symbols :   Thunderstorms  Fog  Heavy snow  Heavy precipitations  Wind > 20 kt






- Airport Elevation : 84 ft
- IATA code : YQQ


CYQQ - Comox

CURRENT METAR :
  • 301000Z 28004KT 20SM SKC M03/M07 A3050 RMK SLP331

EXPIRED METARs :
  • 300900Z 00000KT 20SM SKC M04/M06 A3049 RMK SLP328
  • 300800Z 00000KT 20SM SKC M03/M06 A3049 RMK SLP327

TAF TAF CYQQ
Valid from the 30 at 06:00 until the 31 at 06:00 UTC


300543Z 3006/3106 VRB03KT P6SM SKC
FM301500 28005KT P6SM SCT020
FM301900 10005KT P6SM SCT020 BKN180
FM310200 13005KT P6SM SCT030 BKN060 OVC120
FM310500 13005KT P6SM BKN020 BKN050 OVC120 RMK NXT FCST BY 301200Z
CZVR FIR / North America



MET'MAP, your aeronautical weather chart ! - Copyright ORBIFLY December 2007 - Disclaimer

ORBIFLY MET'MAP TEAM :

Programming & Development : Alexandra Zaïnal
Original concept : Baudouin d'Aumeries
Technical & hardware support : Manuel Goepfert
Assistance : Marc-Olivier Méhu




SOURCES & CREDITS :

   NOAA       Earth
Advisory